createdAt,value
2023-04-22T00:00:16.343Z,553.00
2023-04-22T00:01:16.370Z,553.00
2023-04-22T00:02:16.458Z,554.00
2023-04-22T00:03:16.639Z,553.00
2023-04-22T00:04:16.776Z,553.00
2023-04-22T00:05:19.500Z,554.00
2023-04-22T00:06:16.420Z,556.00
2023-04-22T00:07:16.387Z,556.00
2023-04-22T00:08:16.399Z,555.00
2023-04-22T00:09:16.391Z,554.00
2023-04-22T00:10:16.372Z,554.00
2023-04-22T00:11:16.392Z,554.00
2023-04-22T00:12:16.363Z,556.00
2023-04-22T00:13:16.371Z,556.00
2023-04-22T00:14:16.342Z,555.00
2023-04-22T00:15:16.339Z,551.00
2023-04-22T00:16:16.365Z,552.00
2023-04-22T00:17:16.332Z,552.00
2023-04-22T00:18:16.345Z,553.00
2023-04-22T00:19:16.307Z,553.00
2023-04-22T00:20:16.321Z,553.00
2023-04-22T00:21:16.313Z,555.00
2023-04-22T00:22:16.335Z,558.00
2023-04-22T00:23:16.309Z,559.00
2023-04-22T00:24:16.289Z,559.00
2023-04-22T00:25:16.315Z,560.00
2023-04-22T00:26:16.520Z,559.00
2023-04-22T00:27:16.286Z,556.00
2023-04-22T00:28:16.255Z,555.00
2023-04-22T00:29:16.281Z,557.00
2023-04-22T00:30:17.038Z,557.00
2023-04-22T00:31:16.275Z,556.00
2023-04-22T00:32:16.232Z,555.00
2023-04-22T00:33:16.242Z,554.00
2023-04-22T00:34:16.257Z,556.00
2023-04-22T00:35:16.233Z,555.00
2023-04-22T00:36:16.234Z,554.00
2023-04-22T00:37:16.212Z,555.00
2023-04-22T00:38:16.239Z,556.00
2023-04-22T00:39:16.192Z,553.00
2023-04-22T00:40:16.223Z,555.00
2023-04-22T00:41:16.163Z,554.00
2023-04-22T00:42:16.168Z,554.00
2023-04-22T00:43:16.179Z,557.00
2023-04-22T00:44:16.142Z,553.00
2023-04-22T00:45:16.169Z,554.00
2023-04-22T00:46:16.145Z,550.00
2023-04-22T00:47:16.193Z,550.00
2023-04-22T00:48:16.140Z,552.00
2023-04-22T00:49:16.137Z,552.00
2023-04-22T00:50:16.199Z,553.00
2023-04-22T00:51:16.135Z,556.00
2023-04-22T00:52:16.107Z,558.00
2023-04-22T00:53:16.993Z,558.00
2023-04-22T00:54:16.158Z,559.00
2023-04-22T00:55:16.199Z,559.00
2023-04-22T00:56:16.521Z,557.00
2023-04-22T00:57:16.272Z,558.00
2023-04-22T00:58:16.301Z,556.00
2023-04-22T00:59:16.324Z,556.00
2023-04-22T01:00:16.356Z,556.00
2023-04-22T01:01:16.361Z,556.00
2023-04-22T01:02:16.466Z,555.00
2023-04-22T01:03:16.499Z,556.00
2023-04-22T01:04:16.577Z,559.00
2023-04-22T01:05:16.430Z,558.00
2023-04-22T01:06:16.409Z,555.00
2023-04-22T01:07:16.470Z,554.00
2023-04-22T01:08:16.437Z,554.00
2023-04-22T01:09:16.442Z,554.00
2023-04-22T01:10:16.459Z,557.00
2023-04-22T01:11:16.445Z,558.00
2023-04-22T01:12:16.510Z,558.00
2023-04-22T01:13:16.481Z,557.00
2023-04-22T01:14:16.492Z,556.00
2023-04-22T01:15:16.545Z,557.00
2023-04-22T01:16:16.598Z,557.00
2023-04-22T01:17:16.525Z,556.00
2023-04-22T01:18:16.529Z,555.00
2023-04-22T01:19:16.554Z,556.00
2023-04-22T01:20:16.553Z,558.00
2023-04-22T01:21:16.577Z,558.00
2023-04-22T01:22:16.536Z,557.00
2023-04-22T01:23:16.564Z,555.00
2023-04-22T01:24:16.587Z,554.00
2023-04-22T01:25:16.630Z,553.00
2023-04-22T01:26:16.606Z,551.00
2023-04-22T01:27:16.626Z,550.00
2023-04-22T01:28:16.644Z,550.00
2023-04-22T01:29:16.685Z,549.00
2023-04-22T01:30:16.722Z,548.00
2023-04-22T01:31:16.723Z,549.00
2023-04-22T01:32:16.796Z,551.00
2023-04-22T01:33:16.818Z,553.00
2023-04-22T01:34:16.798Z,552.00
2023-04-22T01:35:16.851Z,550.00
2023-04-22T01:36:16.865Z,551.00
2023-04-22T01:37:16.876Z,550.00
2023-04-22T01:38:16.877Z,548.00
2023-04-22T01:39:16.867Z,548.00
2023-04-22T01:40:16.909Z,550.00
2023-04-22T01:41:16.870Z,551.00
2023-04-22T01:42:16.884Z,551.00
2023-04-22T01:43:16.882Z,555.00
2023-04-22T01:44:16.876Z,557.00
2023-04-22T01:45:16.905Z,557.00
2023-04-22T01:46:16.898Z,557.00
2023-04-22T01:47:16.873Z,558.00
2023-04-22T01:48:16.930Z,556.00
2023-04-22T01:49:16.910Z,555.00
2023-04-22T01:50:16.887Z,553.00
2023-04-22T01:51:16.894Z,552.00
2023-04-22T01:52:16.866Z,552.00
2023-04-22T01:53:16.855Z,550.00
2023-04-22T01:54:16.865Z,549.00
2023-04-22T01:55:16.917Z,548.00
2023-04-22T01:56:16.869Z,547.00
2023-04-22T01:57:16.893Z,548.00
2023-04-22T01:58:16.874Z,547.00
2023-04-22T01:59:16.843Z,549.00
2023-04-22T02:00:16.903Z,550.00
2023-04-22T02:01:16.894Z,552.00
2023-04-22T02:02:16.967Z,552.00
2023-04-22T02:03:16.932Z,555.00
2023-04-22T02:04:16.883Z,552.00
2023-04-22T02:05:16.923Z,551.00
2023-04-22T02:06:16.860Z,552.00
2023-04-22T02:07:16.889Z,550.00
2023-04-22T02:08:16.866Z,552.00
2023-04-22T02:09:16.862Z,551.00
2023-04-22T02:10:16.887Z,551.00
2023-04-22T02:11:16.881Z,551.00
2023-04-22T02:12:16.873Z,548.00
2023-04-22T02:13:16.897Z,549.00
2023-04-22T02:14:16.916Z,550.00
2023-04-22T02:15:16.886Z,550.00
2023-04-22T02:16:16.932Z,553.00
2023-04-22T02:17:16.908Z,555.00
2023-04-22T02:18:16.893Z,554.00
2023-04-22T02:19:16.921Z,552.00
2023-04-22T02:20:17.001Z,552.00
2023-04-22T02:21:16.910Z,551.00
2023-04-22T02:22:16.894Z,554.00
2023-04-22T02:23:16.913Z,557.00
2023-04-22T02:24:16.943Z,556.00
2023-04-22T02:25:16.910Z,553.00
2023-04-22T02:26:16.936Z,555.00
2023-04-22T02:27:16.921Z,560.00
2023-04-22T02:28:16.916Z,560.00
2023-04-22T02:29:16.931Z,559.00
2023-04-22T02:30:16.958Z,557.00
2023-04-22T02:31:16.999Z,556.00
2023-04-22T02:32:16.929Z,557.00
2023-04-22T02:33:16.912Z,556.00
2023-04-22T02:34:16.919Z,555.00
2023-04-22T02:35:16.944Z,556.00
2023-04-22T02:36:16.961Z,557.00
2023-04-22T02:37:16.924Z,559.00
2023-04-22T02:38:16.925Z,558.00
2023-04-22T02:39:16.965Z,558.00
2023-04-22T02:40:16.973Z,557.00
2023-04-22T02:41:17.012Z,556.00
2023-04-22T02:42:16.975Z,556.00
2023-04-22T02:43:16.942Z,555.00
2023-04-22T02:44:16.976Z,555.00
2023-04-22T02:45:16.970Z,557.00
2023-04-22T02:46:17.024Z,555.00
2023-04-22T02:47:16.967Z,556.00
2023-04-22T02:48:16.984Z,557.00
2023-04-22T02:49:17.005Z,556.00
2023-04-22T02:50:17.027Z,555.00
2023-04-22T02:51:17.009Z,557.00
2023-04-22T02:52:17.004Z,557.00
2023-04-22T02:53:16.985Z,557.00
2023-04-22T02:54:17.009Z,556.00
2023-04-22T02:55:16.995Z,551.00
2023-04-22T02:56:17.044Z,551.00
2023-04-22T02:57:16.990Z,550.00
2023-04-22T02:58:17.041Z,549.00
2023-04-22T02:59:17.005Z,549.00
2023-04-22T03:00:17.056Z,547.00
2023-04-22T03:01:17.133Z,546.00
2023-04-22T03:02:17.092Z,547.00
2023-04-22T03:03:17.221Z,546.00
2023-04-22T03:04:17.167Z,544.00
2023-04-22T03:05:17.047Z,544.00
2023-04-22T03:06:17.123Z,548.00
2023-04-22T03:07:17.071Z,550.00
2023-04-22T03:08:17.092Z,552.00
2023-04-22T03:09:17.111Z,557.00
2023-04-22T03:10:17.091Z,556.00
2023-04-22T03:11:17.576Z,556.00
2023-04-22T03:12:17.108Z,556.00
2023-04-22T03:13:17.145Z,554.00
2023-04-22T03:14:17.126Z,552.00
2023-04-22T03:15:20.471Z,552.00
2023-04-22T03:16:17.164Z,551.00
2023-04-22T03:17:17.106Z,552.00
2023-04-22T03:18:17.131Z,550.00
2023-04-22T03:19:17.114Z,550.00
2023-04-22T03:20:17.110Z,550.00
2023-04-22T03:21:17.096Z,552.00
2023-04-22T03:22:17.096Z,549.00
2023-04-22T03:23:17.068Z,546.00
2023-04-22T03:24:17.088Z,546.00
2023-04-22T03:25:17.089Z,548.00
2023-04-22T03:26:17.143Z,550.00
2023-04-22T03:27:17.047Z,550.00
2023-04-22T03:28:17.041Z,549.00
2023-04-22T03:29:17.018Z,550.00
2023-04-22T03:30:17.036Z,552.00
2023-04-22T03:31:17.050Z,548.00
2023-04-22T03:32:17.117Z,549.00
2023-04-22T03:33:17.116Z,551.00
2023-04-22T03:34:17.015Z,552.00
2023-04-22T03:35:16.997Z,553.00
2023-04-22T03:36:17.010Z,555.00
2023-04-22T03:37:17.012Z,556.00
2023-04-22T03:38:16.992Z,556.00
2023-04-22T03:39:16.964Z,556.00
2023-04-22T03:40:16.988Z,554.00
2023-04-22T03:41:16.985Z,555.00
2023-04-22T03:42:16.954Z,553.00
2023-04-22T03:43:16.936Z,553.00
2023-04-22T03:44:16.955Z,551.00
2023-04-22T03:45:16.961Z,551.00
2023-04-22T03:46:17.002Z,552.00
2023-04-22T03:47:16.924Z,552.00
2023-04-22T03:48:16.922Z,551.00
2023-04-22T03:49:16.915Z,549.00
2023-04-22T03:50:16.907Z,549.00
2023-04-22T03:51:16.937Z,548.00
2023-04-22T03:52:16.891Z,547.00
2023-04-22T03:53:16.923Z,548.00
2023-04-22T03:54:16.867Z,548.00
2023-04-22T03:55:16.859Z,547.00
2023-04-22T03:56:16.866Z,546.00
2023-04-22T03:57:16.871Z,547.00
2023-04-22T03:58:16.838Z,546.00
2023-04-22T03:59:16.827Z,548.00
2023-04-22T04:00:16.831Z,550.00
2023-04-22T04:01:16.851Z,550.00
2023-04-22T04:02:16.911Z,552.00
2023-04-22T04:03:17.144Z,551.00
2023-04-22T04:04:17.175Z,551.00
2023-04-22T04:05:16.915Z,549.00
2023-04-22T04:06:16.796Z,548.00
2023-04-22T04:07:16.820Z,548.00
2023-04-22T04:08:16.776Z,547.00
2023-04-22T04:09:16.800Z,546.00
2023-04-22T04:10:16.800Z,547.00
2023-04-22T04:11:16.800Z,549.00
2023-04-22T04:12:16.758Z,548.00
2023-04-22T04:13:16.745Z,547.00
2023-04-22T04:14:16.746Z,549.00
2023-04-22T04:15:16.713Z,549.00
2023-04-22T04:16:16.855Z,552.00
2023-04-22T04:17:16.724Z,553.00
2023-04-22T04:18:16.756Z,553.00
2023-04-22T04:19:16.732Z,555.00
2023-04-22T04:20:16.697Z,555.00
2023-04-22T04:21:16.702Z,554.00
2023-04-22T04:22:16.679Z,553.00
2023-04-22T04:23:16.660Z,553.00
2023-04-22T04:24:16.653Z,553.00
2023-04-22T04:25:16.690Z,553.00
2023-04-22T04:26:16.672Z,553.00
2023-04-22T04:27:16.630Z,555.00
2023-04-22T04:28:16.636Z,556.00
2023-04-22T04:29:16.655Z,552.00
2023-04-22T04:30:16.647Z,550.00
2023-04-22T04:31:16.701Z,549.00
2023-04-22T04:32:16.616Z,549.00
2023-04-22T04:33:16.600Z,551.00
2023-04-22T04:34:16.631Z,547.00
2023-04-22T04:35:16.618Z,548.00
2023-04-22T04:36:16.597Z,545.00
2023-04-22T04:37:16.574Z,545.00
2023-04-22T04:38:16.585Z,545.00
2023-04-22T04:39:16.573Z,542.00
2023-04-22T04:40:16.563Z,543.00
2023-04-22T04:41:16.554Z,545.00
2023-04-22T04:42:16.549Z,543.00
2023-04-22T04:43:16.574Z,543.00
2023-04-22T04:44:16.524Z,543.00
2023-04-22T04:45:16.528Z,540.00
2023-04-22T04:46:16.613Z,540.00
2023-04-22T04:47:16.537Z,539.00
2023-04-22T04:48:16.497Z,538.00
2023-04-22T04:49:16.501Z,539.00
2023-04-22T04:50:16.479Z,539.00
2023-04-22T04:51:19.546Z,541.00
2023-04-22T04:52:16.505Z,543.00
2023-04-22T04:53:16.456Z,539.00
2023-04-22T04:54:16.461Z,537.00
2023-04-22T04:55:16.456Z,536.00
2023-04-22T04:56:16.467Z,537.00
2023-04-22T04:57:16.460Z,538.00
2023-04-22T04:58:16.436Z,541.00
2023-04-22T04:59:16.439Z,541.00
2023-04-22T05:00:16.471Z,542.00
2023-04-22T05:01:16.448Z,543.00
2023-04-22T05:02:16.505Z,542.00
2023-04-22T05:03:16.653Z,542.00
2023-04-22T05:04:16.664Z,542.00
2023-04-22T05:05:16.380Z,540.00
2023-04-22T05:06:16.388Z,538.00
2023-04-22T05:07:16.377Z,535.00
2023-04-22T05:08:16.398Z,537.00
2023-04-22T05:09:16.355Z,536.00
2023-04-22T05:10:16.349Z,536.00
2023-04-22T05:11:16.347Z,540.00
2023-04-22T05:12:16.359Z,539.00
2023-04-22T05:13:16.348Z,541.00
2023-04-22T05:14:16.328Z,543.00
2023-04-22T05:15:16.366Z,545.00
2023-04-22T05:16:16.380Z,542.00
2023-04-22T05:17:16.323Z,540.00
2023-04-22T05:18:16.302Z,538.00
2023-04-22T05:19:16.293Z,543.00
2023-04-22T05:20:16.298Z,545.00
2023-04-22T05:21:16.302Z,544.00
2023-04-22T05:22:16.301Z,541.00
2023-04-22T05:23:16.267Z,542.00
2023-04-22T05:24:16.275Z,540.00
2023-04-22T05:25:16.268Z,539.00
2023-04-22T05:26:16.269Z,540.00
2023-04-22T05:27:16.240Z,542.00
2023-04-22T05:28:16.245Z,544.00
2023-04-22T05:29:16.246Z,545.00
2023-04-22T05:30:16.247Z,544.00
2023-04-22T05:31:16.256Z,544.00
2023-04-22T05:32:16.376Z,544.00
2023-04-22T05:33:16.235Z,545.00
2023-04-22T05:34:16.246Z,543.00
2023-04-22T05:35:16.247Z,542.00
2023-04-22T05:36:16.219Z,544.00
2023-04-22T05:37:16.199Z,546.00
2023-04-22T05:38:16.243Z,548.00
2023-04-22T05:39:16.189Z,548.00
2023-04-22T05:40:16.185Z,545.00
2023-04-22T05:41:16.168Z,545.00
2023-04-22T05:42:16.161Z,542.00
2023-04-22T05:43:16.152Z,540.00
2023-04-22T05:44:16.167Z,540.00
2023-04-22T05:45:16.168Z,541.00
2023-04-22T05:46:16.220Z,542.00
2023-04-22T05:47:16.133Z,541.00
2023-04-22T05:48:16.130Z,541.00
2023-04-22T05:49:16.102Z,545.00
2023-04-22T05:50:16.106Z,543.00
2023-04-22T05:51:16.115Z,543.00
2023-04-22T05:52:16.105Z,544.00
2023-04-22T05:53:16.116Z,543.00
2023-04-22T05:54:16.078Z,545.00
2023-04-22T05:55:16.076Z,547.00
2023-04-22T05:56:16.080Z,543.00
2023-04-22T05:57:16.076Z,545.00
2023-04-22T05:58:16.046Z,547.00
2023-04-22T05:59:16.062Z,548.00
2023-04-22T06:00:16.053Z,548.00
2023-04-22T06:01:16.049Z,547.00
2023-04-22T06:02:16.148Z,546.00
2023-04-22T06:03:16.163Z,548.00
2023-04-22T06:04:16.290Z,549.00
2023-04-22T06:05:16.144Z,550.00
2023-04-22T06:06:16.027Z,549.00
2023-04-22T06:07:16.018Z,548.00
2023-04-22T06:08:16.015Z,547.00
2023-04-22T06:09:15.993Z,544.00
2023-04-22T06:10:15.996Z,545.00
2023-04-22T06:11:15.971Z,544.00
2023-04-22T06:12:15.962Z,541.00
2023-04-22T06:13:15.993Z,539.00
2023-04-22T06:14:16.010Z,540.00
2023-04-22T06:15:15.954Z,538.00
2023-04-22T06:16:15.939Z,539.00
2023-04-22T06:17:15.970Z,538.00
2023-04-22T06:18:15.933Z,540.00
2023-04-22T06:19:15.914Z,541.00
2023-04-22T06:20:15.945Z,540.00
2023-04-22T06:21:15.937Z,542.00
2023-04-22T06:22:15.901Z,543.00
2023-04-22T06:23:15.917Z,544.00
2023-04-22T06:24:15.896Z,543.00
2023-04-22T06:25:15.885Z,541.00
2023-04-22T06:26:15.900Z,540.00
2023-04-22T06:27:15.867Z,540.00
2023-04-22T06:28:15.873Z,542.00
2023-04-22T06:29:15.861Z,544.00
2023-04-22T06:30:15.862Z,544.00
2023-04-22T06:31:16.233Z,546.00
2023-04-22T06:32:15.862Z,548.00
2023-04-22T06:33:15.899Z,546.00
2023-04-22T06:34:15.824Z,544.00
2023-04-22T06:35:15.828Z,544.00
2023-04-22T06:36:16.677Z,543.00
2023-04-22T06:37:15.822Z,542.00
2023-04-22T06:38:15.818Z,539.00
2023-04-22T06:39:15.799Z,538.00
2023-04-22T06:40:15.815Z,539.00
2023-04-22T06:41:15.790Z,542.00
2023-04-22T06:42:15.792Z,538.00
2023-04-22T06:43:15.769Z,536.00
2023-04-22T06:44:15.836Z,535.00
2023-04-22T06:45:15.749Z,535.00
2023-04-22T06:46:15.863Z,536.00
2023-04-22T06:47:15.748Z,537.00
2023-04-22T06:48:15.750Z,538.00
2023-04-22T06:49:15.748Z,540.00
2023-04-22T06:50:15.750Z,539.00
2023-04-22T06:51:15.752Z,538.00
2023-04-22T06:52:15.717Z,538.00
2023-04-22T06:53:15.728Z,537.00
2023-04-22T06:54:15.698Z,539.00
2023-04-22T06:55:15.735Z,538.00
2023-04-22T06:56:15.714Z,536.00
2023-04-22T06:57:15.697Z,536.00
2023-04-22T06:58:15.682Z,537.00
2023-04-22T06:59:15.707Z,537.00
2023-04-22T07:00:15.692Z,541.00
2023-04-22T07:01:15.681Z,540.00
2023-04-22T07:02:15.737Z,539.00
2023-04-22T07:03:15.725Z,540.00
2023-04-22T07:04:15.715Z,541.00
2023-04-22T07:05:15.671Z,542.00
2023-04-22T07:06:15.728Z,540.00
2023-04-22T07:07:15.796Z,541.00
2023-04-22T07:08:15.834Z,540.00
2023-04-22T07:09:15.893Z,539.00
2023-04-22T07:10:15.921Z,535.00
2023-04-22T07:11:15.986Z,536.00
2023-04-22T07:12:16.001Z,536.00
2023-04-22T07:13:16.041Z,535.00
2023-04-22T07:14:16.091Z,537.00
2023-04-22T07:15:16.181Z,538.00
2023-04-22T07:16:16.267Z,536.00
2023-04-22T07:17:16.273Z,537.00
2023-04-22T07:18:16.322Z,537.00
2023-04-22T07:19:16.362Z,537.00
2023-04-22T07:20:16.457Z,538.00
2023-04-22T07:21:16.450Z,538.00
2023-04-22T07:22:16.488Z,539.00
2023-04-22T07:23:16.532Z,539.00
2023-04-22T07:24:16.576Z,537.00
2023-04-22T07:25:16.611Z,536.00
2023-04-22T07:26:16.678Z,537.00
2023-04-22T07:27:16.707Z,537.00
2023-04-22T07:28:16.787Z,537.00
2023-04-22T07:29:16.811Z,538.00
2023-04-22T07:30:16.856Z,540.00
2023-04-22T07:31:16.944Z,538.00
2023-04-22T07:32:16.975Z,539.00
2023-04-22T07:33:17.046Z,538.00
2023-04-22T07:34:17.111Z,538.00
2023-04-22T07:35:17.178Z,540.00
2023-04-22T07:36:17.246Z,536.00
2023-04-22T07:37:17.298Z,534.00
2023-04-22T07:38:17.355Z,535.00
2023-04-22T07:39:17.463Z,532.00
2023-04-22T07:40:17.518Z,535.00
2023-04-22T07:41:17.560Z,534.00
2023-04-22T07:42:17.632Z,532.00
2023-04-22T07:43:17.704Z,532.00
2023-04-22T07:44:17.741Z,533.00
2023-04-22T07:45:17.779Z,537.00
2023-04-22T07:46:17.897Z,538.00
2023-04-22T07:47:17.903Z,538.00
2023-04-22T07:48:17.983Z,539.00
2023-04-22T07:49:18.028Z,538.00
2023-04-22T07:50:18.132Z,535.00
2023-04-22T07:51:18.657Z,534.00
2023-04-22T07:52:18.199Z,535.00
2023-04-22T07:53:18.264Z,535.00
2023-04-22T07:54:18.324Z,534.00
2023-04-22T07:55:18.382Z,535.00
2023-04-22T07:56:18.460Z,534.00
2023-04-22T07:57:18.499Z,533.00
2023-04-22T07:58:18.590Z,532.00
2023-04-22T07:59:18.612Z,531.00
2023-04-22T08:00:18.685Z,531.00
2023-04-22T08:01:20.207Z,533.00
2023-04-22T08:02:18.943Z,534.00
2023-04-22T08:03:19.084Z,534.00
2023-04-22T08:04:19.099Z,533.00
2023-04-22T08:05:19.067Z,531.00
2023-04-22T08:06:19.040Z,532.00
2023-04-22T08:08:19.086Z,535.00
2023-04-22T08:09:19.075Z,533.00
2023-04-22T08:10:19.063Z,530.00
2023-04-22T08:11:19.068Z,528.00
2023-04-22T08:12:19.057Z,528.00
2023-04-22T08:13:19.066Z,530.00
2023-04-22T08:14:19.075Z,531.00
2023-04-22T08:15:19.085Z,530.00
2023-04-22T08:16:19.110Z,530.00
2023-04-22T08:17:19.058Z,526.00
2023-04-22T08:18:19.058Z,526.00
2023-04-22T08:19:19.022Z,529.00
2023-04-22T08:20:19.038Z,528.00
2023-04-22T08:21:19.057Z,529.00
2023-04-22T08:22:18.992Z,527.00
2023-04-22T08:23:18.984Z,526.00
2023-04-22T08:24:18.992Z,525.00
2023-04-22T08:25:18.976Z,523.00
2023-04-22T08:26:19.009Z,524.00
2023-04-22T08:27:19.005Z,523.00
2023-04-22T08:28:18.966Z,522.00
2023-04-22T08:29:18.951Z,521.00
2023-04-22T08:30:18.974Z,522.00
2023-04-22T08:31:19.009Z,522.00
2023-04-22T08:32:18.951Z,523.00
2023-04-22T08:33:18.925Z,526.00
2023-04-22T08:34:18.924Z,528.00
2023-04-22T08:35:18.927Z,529.00
2023-04-22T08:36:18.945Z,527.00
2023-04-22T08:37:18.904Z,532.00
2023-04-22T08:38:18.888Z,532.00
2023-04-22T08:39:18.911Z,529.00
2023-04-22T08:40:18.887Z,530.00
2023-04-22T08:41:18.898Z,529.00
2023-04-22T08:42:18.858Z,527.00
2023-04-22T08:43:18.867Z,527.00
2023-04-22T08:44:18.844Z,527.00
2023-04-22T08:45:18.841Z,525.00
2023-04-22T08:46:18.875Z,526.00
2023-04-22T08:47:18.841Z,529.00
2023-04-22T08:48:18.825Z,530.00
2023-04-22T08:49:18.894Z,533.00
2023-04-22T08:50:18.915Z,533.00
2023-04-22T08:51:19.022Z,530.00
2023-04-22T08:52:19.033Z,528.00
2023-04-22T08:53:19.064Z,528.00
2023-04-22T08:54:19.137Z,530.00
2023-04-22T08:55:19.180Z,530.00
2023-04-22T08:56:19.170Z,532.00
2023-04-22T08:57:19.210Z,529.00
2023-04-22T08:58:19.272Z,530.00
2023-04-22T08:59:19.293Z,531.00
2023-04-22T09:00:19.374Z,529.00
2023-04-22T09:01:19.460Z,528.00
2023-04-22T09:02:19.436Z,529.00
2023-04-22T09:03:19.537Z,530.00
2023-04-22T09:04:19.601Z,531.00
2023-04-22T09:05:19.508Z,531.00
2023-04-22T09:06:19.559Z,531.00
2023-04-22T09:07:19.593Z,533.00
2023-04-22T09:08:19.637Z,535.00
2023-04-22T09:09:19.691Z,536.00
2023-04-22T09:10:19.692Z,539.00
2023-04-22T09:11:19.777Z,538.00
2023-04-22T09:12:19.746Z,537.00
2023-04-22T09:13:19.766Z,535.00
2023-04-22T09:14:19.792Z,537.00
2023-04-22T09:15:19.858Z,537.00
2023-04-22T09:16:19.897Z,536.00
2023-04-22T09:17:19.888Z,536.00
2023-04-22T09:18:19.901Z,534.00
2023-04-22T09:19:19.909Z,535.00
2023-04-22T09:20:20.059Z,535.00
2023-04-22T09:21:20.010Z,533.00
2023-04-22T09:22:19.989Z,533.00
2023-04-22T09:23:20.043Z,530.00
2023-04-22T09:24:20.061Z,526.00
2023-04-22T09:25:20.078Z,524.00
2023-04-22T09:26:20.101Z,522.00
2023-04-22T09:27:20.135Z,522.00
2023-04-22T09:28:20.182Z,524.00
2023-04-22T09:29:20.149Z,526.00
2023-04-22T09:30:20.200Z,524.00
2023-04-22T09:31:20.204Z,525.00
2023-04-22T09:32:20.233Z,525.00
2023-04-22T09:33:20.232Z,527.00
2023-04-22T09:34:20.249Z,530.00
2023-04-22T09:35:20.283Z,528.00
2023-04-22T09:36:20.267Z,529.00
2023-04-22T09:37:20.305Z,529.00
2023-04-22T09:38:20.284Z,529.00
2023-04-22T09:39:20.355Z,532.00
2023-04-22T09:40:20.319Z,532.00
2023-04-22T09:41:20.380Z,531.00
2023-04-22T09:42:20.395Z,531.00
2023-04-22T09:43:20.366Z,530.00
2023-04-22T09:44:20.385Z,532.00
2023-04-22T09:45:20.406Z,533.00
2023-04-22T09:46:20.574Z,532.00
2023-04-22T09:47:20.440Z,531.00
2023-04-22T09:48:20.446Z,532.00
2023-04-22T09:49:20.470Z,532.00
2023-04-22T09:50:20.495Z,532.00
2023-04-22T09:51:20.509Z,531.00
2023-04-22T09:52:20.481Z,531.00
2023-04-22T09:53:20.502Z,529.00
2023-04-22T09:54:20.517Z,528.00
2023-04-22T09:55:20.527Z,526.00
2023-04-22T09:56:20.552Z,525.00
2023-04-22T09:57:20.539Z,524.00
2023-04-22T09:58:20.548Z,524.00
2023-04-22T09:59:20.568Z,523.00
2023-04-22T10:00:20.548Z,523.00
2023-04-22T10:01:20.623Z,525.00
2023-04-22T10:02:21.204Z,525.00
2023-04-22T10:03:20.595Z,527.00
2023-04-22T10:04:20.617Z,527.00
2023-04-22T10:05:20.574Z,528.00
2023-04-22T10:06:20.574Z,528.00
2023-04-22T10:07:20.562Z,531.00
2023-04-22T10:08:20.580Z,529.00
2023-04-22T10:09:20.603Z,528.00
2023-04-22T10:10:20.567Z,528.00
2023-04-22T10:11:20.632Z,527.00
2023-04-22T10:12:26.194Z,528.00
2023-04-22T10:13:21.568Z,530.00
2023-04-22T10:14:20.600Z,531.00
2023-04-22T10:15:20.551Z,532.00
2023-04-22T10:16:20.594Z,531.00
2023-04-22T10:17:20.524Z,531.00
2023-04-22T10:18:20.542Z,530.00
2023-04-22T10:19:20.528Z,530.00
2023-04-22T10:20:20.544Z,530.00
2023-04-22T10:21:20.576Z,530.00
2023-04-22T10:22:20.502Z,528.00
2023-04-22T10:23:20.503Z,528.00
2023-04-22T10:24:20.518Z,529.00
2023-04-22T10:25:20.487Z,530.00
2023-04-22T10:26:20.498Z,529.00
2023-04-22T10:27:20.462Z,529.00
2023-04-22T10:28:20.481Z,531.00
2023-04-22T10:29:20.443Z,531.00
2023-04-22T10:30:20.447Z,533.00
2023-04-22T10:31:20.446Z,531.00
2023-04-22T10:32:20.528Z,531.00
2023-04-22T10:33:20.440Z,531.00
2023-04-22T10:34:20.447Z,531.00
2023-04-22T10:35:20.419Z,530.00
2023-04-22T10:36:20.424Z,528.00
2023-04-22T10:37:20.397Z,528.00
2023-04-22T10:38:20.417Z,528.00
2023-04-22T10:39:20.397Z,528.00
2023-04-22T10:40:20.361Z,527.00
2023-04-22T10:41:20.364Z,530.00
2023-04-22T10:42:20.382Z,530.00
2023-04-22T10:43:20.401Z,531.00
2023-04-22T10:44:20.362Z,529.00
2023-04-22T10:45:20.341Z,528.00
2023-04-22T10:46:20.379Z,530.00
2023-04-22T10:47:20.305Z,530.00
2023-04-22T10:48:20.308Z,531.00
2023-04-22T10:49:20.301Z,531.00
2023-04-22T10:50:20.304Z,533.00
2023-04-22T10:51:20.354Z,534.00
2023-04-22T10:52:20.277Z,534.00
2023-04-22T10:53:20.282Z,534.00
2023-04-22T10:54:20.315Z,535.00
2023-04-22T10:55:20.385Z,535.00
2023-04-22T10:56:20.456Z,534.00
2023-04-22T10:57:20.465Z,534.00
2023-04-22T10:58:20.545Z,534.00
2023-04-22T10:59:20.596Z,533.00
2023-04-22T11:00:20.664Z,533.00
2023-04-22T11:01:20.747Z,532.00
2023-04-22T11:02:20.820Z,532.00
2023-04-22T11:03:21.026Z,530.00
2023-04-22T11:04:20.984Z,530.00
2023-04-22T11:05:21.191Z,529.00
2023-04-22T11:06:21.059Z,530.00
2023-04-22T11:07:21.158Z,529.00
2023-04-22T11:08:21.172Z,527.00
2023-04-22T11:09:21.194Z,527.00
2023-04-22T11:10:21.265Z,525.00
2023-04-22T11:11:21.337Z,527.00
2023-04-22T11:12:21.393Z,527.00
2023-04-22T11:13:21.589Z,528.00
2023-04-22T11:14:21.524Z,529.00
2023-04-22T11:15:21.545Z,531.00
2023-04-22T11:16:22.360Z,532.00
2023-04-22T11:17:21.708Z,531.00
2023-04-22T11:18:21.737Z,532.00
2023-04-22T11:19:21.796Z,529.00
2023-04-22T11:20:21.835Z,528.00
2023-04-22T11:21:21.912Z,527.00
2023-04-22T11:22:21.961Z,526.00
2023-04-22T11:23:22.013Z,527.00
2023-04-22T11:24:22.073Z,523.00
2023-04-22T11:25:22.148Z,521.00
2023-04-22T11:26:22.209Z,521.00
2023-04-22T11:27:22.234Z,520.00
2023-04-22T11:28:22.285Z,520.00
2023-04-22T11:29:22.336Z,520.00
2023-04-22T11:30:22.379Z,519.00
2023-04-22T11:31:22.518Z,522.00
2023-04-22T11:32:22.536Z,518.00
2023-04-22T11:33:22.556Z,517.00
2023-04-22T11:34:22.593Z,519.00
2023-04-22T11:35:22.663Z,521.00
2023-04-22T11:36:22.711Z,520.00
2023-04-22T11:37:22.755Z,522.00
2023-04-22T11:38:22.822Z,522.00
2023-04-22T11:39:22.873Z,521.00
2023-04-22T11:41:22.901Z,521.00
2023-04-22T11:42:22.920Z,521.00
2023-04-22T11:43:22.899Z,522.00
2023-04-22T11:44:22.882Z,520.00
2023-04-22T11:45:22.880Z,520.00
2023-04-22T11:46:22.879Z,517.00
2023-04-22T11:47:22.893Z,518.00
2023-04-22T11:48:22.867Z,516.00
2023-04-22T11:49:22.849Z,515.00
2023-04-22T11:50:22.843Z,517.00
2023-04-22T11:51:23.246Z,518.00
2023-04-22T11:52:22.834Z,516.00
2023-04-22T11:53:22.857Z,518.00
2023-04-22T11:54:22.896Z,519.00
2023-04-22T11:55:22.943Z,519.00
2023-04-22T11:56:23.031Z,521.00
2023-04-22T11:57:23.061Z,524.00
2023-04-22T11:58:23.077Z,523.00
2023-04-22T11:59:23.150Z,524.00
2023-04-22T12:00:23.217Z,523.00
2023-04-22T12:01:23.311Z,522.00
2023-04-22T12:02:23.421Z,523.00
2023-04-22T12:03:23.501Z,522.00
2023-04-22T12:04:23.418Z,522.00
2023-04-22T12:05:23.507Z,521.00
2023-04-22T12:06:23.473Z,522.00
2023-04-22T12:07:23.510Z,521.00
2023-04-22T12:08:23.569Z,523.00
2023-04-22T12:09:23.627Z,523.00
2023-04-22T12:10:23.660Z,522.00
2023-04-22T12:11:23.715Z,522.00
2023-04-22T12:12:23.747Z,522.00
2023-04-22T12:13:23.806Z,520.00
2023-04-22T12:14:23.842Z,519.00
2023-04-22T12:15:23.856Z,519.00
2023-04-22T12:16:24.756Z,516.00
2023-04-22T12:17:23.945Z,518.00
2023-04-22T12:18:23.975Z,519.00
2023-04-22T12:19:24.013Z,519.00
2023-04-22T12:20:24.653Z,522.00
2023-04-22T12:21:24.150Z,521.00
2023-04-22T12:22:24.131Z,519.00
2023-04-22T12:23:24.201Z,517.00
2023-04-22T12:24:24.244Z,519.00
2023-04-22T12:25:24.284Z,523.00
2023-04-22T12:26:26.203Z,521.00
2023-04-22T12:27:24.320Z,522.00
2023-04-22T12:28:24.292Z,522.00
2023-04-22T12:29:24.282Z,523.00
2023-04-22T12:30:24.280Z,523.00